Terminal Aerodrome Forecast
Issued by NWS Jacksonville, FL

Home | Current Version | Previous Version | Text Only | Print | Product List | Glossary On
Versions: 1 2 3 4 5 6 7 8 9 10 11 12 13 14 15 16 17 18 19 20 21 22 23 24 25 26 27 28
000
FTUS42 KJAX 281512 AAA
TAFSSI
TAF AMD
KSSI 281512Z 2815/0112 03018G30KT 3SM -RA BR BKN008 OVC015
      TEMPO 2816/2820 2SM RA BR OVC006
     FM010000 01015G25KT 5SM -RA BR SCT004 OVC007
     FM010600 01010KT 6SM -DZ BR OVC004=

USA.gov is the U.S. government's official web portal to all federal, state and local government web resources and services.